sensor_id;sensor_type;location;lat;lon;timestamp;temperature;humidity
3727;DHT22;1879;45.876;12.300;2024-03-08T00:02:04;9.40;99.90
3727;DHT22;1879;45.876;12.300;2024-03-08T00:04:32;9.40;99.90
3727;DHT22;1879;45.876;12.300;2024-03-08T00:06:59;9.30;99.90
3727;DHT22;1879;45.876;12.300;2024-03-08T00:09:26;9.30;99.90
3727;DHT22;1879;45.876;12.300;2024-03-08T00:11:53;9.30;99.90
3727;DHT22;1879;45.876;12.300;2024-03-08T00:14:20;9.30;99.90
3727;DHT22;1879;45.876;12.300;2024-03-08T00:16:47;9.30;99.90
3727;DHT22;1879;45.876;12.300;2024-03-08T00:19:14;9.30;99.90
3727;DHT22;1879;45.876;12.300;2024-03-08T00:21:42;9.30;99.90
3727;DHT22;1879;45.876;12.300;2024-03-08T00:24:09;9.30;99.90
3727;DHT22;1879;45.876;12.300;2024-03-08T00:26:37;9.40;99.90
3727;DHT22;1879;45.876;12.300;2024-03-08T00:29:04;9.30;99.90
3727;DHT22;1879;45.876;12.300;2024-03-08T00:31:33;9.30;99.90
3727;DHT22;1879;45.876;12.300;2024-03-08T00:34:00;9.30;99.90
3727;DHT22;1879;45.876;12.300;2024-03-08T00:36:27;9.30;99.90
3727;DHT22;1879;45.876;12.300;2024-03-08T00:38:57;9.40;99.90
3727;DHT22;1879;45.876;12.300;2024-03-08T00:41:26;9.40;99.90
3727;DHT22;1879;45.876;12.300;2024-03-08T00:43:53;9.40;99.90
3727;DHT22;1879;45.876;12.300;2024-03-08T00:46:20;9.40;99.90
3727;DHT22;1879;45.876;12.300;2024-03-08T00:48:47;9.40;99.90
3727;DHT22;1879;45.876;12.300;2024-03-08T00:51:14;9.50;99.90
3727;DHT22;1879;45.876;12.300;2024-03-08T00:53:42;9.40;99.90
3727;DHT22;1879;45.876;12.300;2024-03-08T00:56:10;9.40;99.90
3727;DHT22;1879;45.876;12.300;2024-03-08T00:58:37;9.40;99.90
3727;DHT22;1879;45.876;12.300;2024-03-08T01:01:05;9.40;99.90
3727;DHT22;1879;45.876;12.300;2024-03-08T01:03:32;9.30;99.90
3727;DHT22;1879;45.876;12.300;2024-03-08T01:05:59;9.30;99.90
3727;DHT22;1879;45.876;12.300;2024-03-08T01:08:27;9.30;99.90
3727;DHT22;1879;45.876;12.300;2024-03-08T01:10:54;9.30;99.90
3727;DHT22;1879;45.876;12.300;2024-03-08T01:13:23;9.30;99.90
3727;DHT22;1879;45.876;12.300;2024-03-08T01:15:49;9.30;99.90
3727;DHT22;1879;45.876;12.300;2024-03-08T01:18:16;9.30;99.90
3727;DHT22;1879;45.876;12.300;2024-03-08T01:20:45;9.30;99.90
3727;DHT22;1879;45.876;12.300;2024-03-08T01:23:12;9.20;99.90
3727;DHT22;1879;45.876;12.300;2024-03-08T01:25:39;9.20;99.90
3727;DHT22;1879;45.876;12.300;2024-03-08T01:28:07;9.20;99.90
3727;DHT22;1879;45.876;12.300;2024-03-08T01:30:36;9.30;99.90
3727;DHT22;1879;45.876;12.300;2024-03-08T01:33:04;9.30;99.90
3727;DHT22;1879;45.876;12.300;2024-03-08T01:35:31;9.30;99.90
3727;DHT22;1879;45.876;12.300;2024-03-08T01:37:58;9.30;99.90
3727;DHT22;1879;45.876;12.300;2024-03-08T01:40:25;9.30;99.90
3727;DHT22;1879;45.876;12.300;2024-03-08T01:42:52;9.30;99.90
3727;DHT22;1879;45.876;12.300;2024-03-08T01:45:19;9.30;99.90
3727;DHT22;1879;45.876;12.300;2024-03-08T01:47:48;9.20;99.90
3727;DHT22;1879;45.876;12.300;2024-03-08T01:50:15;9.20;99.90
3727;DHT22;1879;45.876;12.300;2024-03-08T01:52:42;9.20;99.90
3727;DHT22;1879;45.876;12.300;2024-03-08T01:55:11;9.20;99.90
3727;DHT22;1879;45.876;12.300;2024-03-08T01:57:40;9.20;99.90
3727;DHT22;1879;45.876;12.300;2024-03-08T02:00:07;9.20;99.90
3727;DHT22;1879;45.876;12.300;2024-03-08T02:02:37;9.20;99.90
3727;DHT22;1879;45.876;12.300;2024-03-08T02:05:07;9.10;99.90
3727;DHT22;1879;45.876;12.300;2024-03-08T02:07:34;9.20;99.90
3727;DHT22;1879;45.876;12.300;2024-03-08T02:10:02;9.10;99.90
3727;DHT22;1879;45.876;12.300;2024-03-08T02:12:29;9.20;99.90
3727;DHT22;1879;45.876;12.300;2024-03-08T02:14:55;9.20;99.90
3727;DHT22;1879;45.876;12.300;2024-03-08T02:17:22;9.20;99.90
3727;DHT22;1879;45.876;12.300;2024-03-08T02:19:49;9.20;99.90
3727;DHT22;1879;45.876;12.300;2024-03-08T02:22:18;9.20;99.90
3727;DHT22;1879;45.876;12.300;2024-03-08T02:24:45;9.20;99.90
3727;DHT22;1879;45.876;12.300;2024-03-08T02:27:12;9.20;99.90
3727;DHT22;1879;45.876;12.300;2024-03-08T02:29:40;9.20;99.90
3727;DHT22;1879;45.876;12.300;2024-03-08T02:32:10;9.20;99.90
3727;DHT22;1879;45.876;12.300;2024-03-08T02:34:37;9.20;99.90
3727;DHT22;1879;45.876;12.300;2024-03-08T02:37:04;9.30;99.90
3727;DHT22;1879;45.876;12.300;2024-03-08T02:39:32;9.30;99.90
3727;DHT22;1879;45.876;12.300;2024-03-08T02:41:59;9.20;99.90
3727;DHT22;1879;45.876;12.300;2024-03-08T02:44:26;9.30;99.90
3727;DHT22;1879;45.876;12.300;2024-03-08T02:46:53;9.20;99.90
3727;DHT22;1879;45.876;12.300;2024-03-08T02:49:21;9.20;99.90
3727;DHT22;1879;45.876;12.300;2024-03-08T02:51:47;9.20;99.90
3727;DHT22;1879;45.876;12.300;2024-03-08T02:54:15;9.10;99.90
3727;DHT22;1879;45.876;12.300;2024-03-08T02:56:44;9.10;99.90
3727;DHT22;1879;45.876;12.300;2024-03-08T02:59:12;9.20;99.90
3727;DHT22;1879;45.876;12.300;2024-03-08T03:01:39;9.20;99.90
3727;DHT22;1879;45.876;12.300;2024-03-08T03:04:06;9.20;99.90
3727;DHT22;1879;45.876;12.300;2024-03-08T03:06:33;9.30;99.90
3727;DHT22;1879;45.876;12.300;2024-03-08T03:09:01;9.30;99.90
3727;DHT22;1879;45.876;12.300;2024-03-08T03:11:28;9.30;99.90
3727;DHT22;1879;45.876;12.300;2024-03-08T03:13:56;9.30;99.90
3727;DHT22;1879;45.876;12.300;2024-03-08T03:16:23;9.30;99.90
3727;DHT22;1879;45.876;12.300;2024-03-08T03:18:50;9.30;99.90
3727;DHT22;1879;45.876;12.300;2024-03-08T03:21:17;9.30;99.90
3727;DHT22;1879;45.876;12.300;2024-03-08T03:23:44;9.30;99.90
3727;DHT22;1879;45.876;12.300;2024-03-08T03:26:11;9.30;99.90
3727;DHT22;1879;45.876;12.300;2024-03-08T03:28:38;9.30;99.90
3727;DHT22;1879;45.876;12.300;2024-03-08T03:31:08;9.30;99.90
3727;DHT22;1879;45.876;12.300;2024-03-08T03:33:39;9.30;99.90
3727;DHT22;1879;45.876;12.300;2024-03-08T03:36:06;9.30;99.90
3727;DHT22;1879;45.876;12.300;2024-03-08T03:38:35;9.30;99.90
3727;DHT22;1879;45.876;12.300;2024-03-08T03:41:03;9.30;99.90
3727;DHT22;1879;45.876;12.300;2024-03-08T03:43:36;9.30;99.90
3727;DHT22;1879;45.876;12.300;2024-03-08T03:46:07;9.30;99.90
3727;DHT22;1879;45.876;12.300;2024-03-08T03:48:36;9.30;99.90
3727;DHT22;1879;45.876;12.300;2024-03-08T03:51:03;9.30;99.90
3727;DHT22;1879;45.876;12.300;2024-03-08T03:53:30;9.30;99.90
3727;DHT22;1879;45.876;12.300;2024-03-08T03:55:57;9.30;99.90
3727;DHT22;1879;45.876;12.300;2024-03-08T03:58:25;9.30;99.90
3727;DHT22;1879;45.876;12.300;2024-03-08T04:00:53;9.30;99.90
3727;DHT22;1879;45.876;12.300;2024-03-08T04:03:21;9.30;99.90
3727;DHT22;1879;45.876;12.300;2024-03-08T04:05:48;9.30;99.90
3727;DHT22;1879;45.876;12.300;2024-03-08T04:08:15;9.30;99.90
3727;DHT22;1879;45.876;12.300;2024-03-08T04:10:42;9.30;99.90
3727;DHT22;1879;45.876;12.300;2024-03-08T04:13:09;9.30;99.90
3727;DHT22;1879;45.876;12.300;2024-03-08T04:15:36;9.30;99.90
3727;DHT22;1879;45.876;12.300;2024-03-08T04:18:04;9.40;99.90
3727;DHT22;1879;45.876;12.300;2024-03-08T04:20:32;9.40;99.90
3727;DHT22;1879;45.876;12.300;2024-03-08T04:22:59;9.40;99.90
3727;DHT22;1879;45.876;12.300;2024-03-08T04:25:26;9.40;99.90
3727;DHT22;1879;45.876;12.300;2024-03-08T04:27:53;9.40;99.90
3727;DHT22;1879;45.876;12.300;2024-03-08T04:30:20;9.30;99.90
3727;DHT22;1879;45.876;12.300;2024-03-08T04:32:48;9.30;99.90
3727;DHT22;1879;45.876;12.300;2024-03-08T04:35:15;9.30;99.90
3727;DHT22;1879;45.876;12.300;2024-03-08T04:37:43;9.30;99.90
3727;DHT22;1879;45.876;12.300;2024-03-08T04:40:11;9.30;99.90
3727;DHT22;1879;45.876;12.300;2024-03-08T04:42:39;9.20;99.90
3727;DHT22;1879;45.876;12.300;2024-03-08T04:45:08;9.30;99.90
3727;DHT22;1879;45.876;12.300;2024-03-08T04:47:36;9.30;99.90
3727;DHT22;1879;45.876;12.300;2024-03-08T04:50:04;9.30;99.90
3727;DHT22;1879;45.876;12.300;2024-03-08T04:52:31;9.20;99.90
3727;DHT22;1879;45.876;12.300;2024-03-08T04:54:59;9.30;99.90
3727;DHT22;1879;45.876;12.300;2024-03-08T04:57:27;9.30;99.90
3727;DHT22;1879;45.876;12.300;2024-03-08T04:59:54;9.30;99.90
3727;DHT22;1879;45.876;12.300;2024-03-08T05:02:21;9.30;99.90
3727;DHT22;1879;45.876;12.300;2024-03-08T05:04:49;9.30;99.90
3727;DHT22;1879;45.876;12.300;2024-03-08T05:07:16;9.30;99.90
3727;DHT22;1879;45.876;12.300;2024-03-08T05:09:43;9.30;99.90
3727;DHT22;1879;45.876;12.300;2024-03-08T05:12:18;9.20;99.90
3727;DHT22;1879;45.876;12.300;2024-03-08T05:14:45;9.20;99.90
3727;DHT22;1879;45.876;12.300;2024-03-08T05:17:15;9.20;99.90
3727;DHT22;1879;45.876;12.300;2024-03-08T05:19:42;9.20;99.90
3727;DHT22;1879;45.876;12.300;2024-03-08T05:22:09;9.20;99.90
3727;DHT22;1879;45.876;12.300;2024-03-08T05:24:36;9.30;99.90
3727;DHT22;1879;45.876;12.300;2024-03-08T05:27:03;9.30;99.90
3727;DHT22;1879;45.876;12.300;2024-03-08T05:29:32;9.30;99.90
3727;DHT22;1879;45.876;12.300;2024-03-08T05:31:59;9.20;99.90
3727;DHT22;1879;45.876;12.300;2024-03-08T05:34:26;9.20;99.90
3727;DHT22;1879;45.876;12.300;2024-03-08T05:36:54;9.10;99.90
3727;DHT22;1879;45.876;12.300;2024-03-08T05:39:21;9.20;99.90
3727;DHT22;1879;45.876;12.300;2024-03-08T05:41:49;9.10;99.90
3727;DHT22;1879;45.876;12.300;2024-03-08T05:44:16;9.10;99.90
3727;DHT22;1879;45.876;12.300;2024-03-08T05:46:45;9.10;99.90
3727;DHT22;1879;45.876;12.300;2024-03-08T05:49:13;9.10;99.90
3727;DHT22;1879;45.876;12.300;2024-03-08T05:51:40;9.10;99.90
3727;DHT22;1879;45.876;12.300;2024-03-08T05:54:09;9.10;99.90
3727;DHT22;1879;45.876;12.300;2024-03-08T05:56:37;9.00;99.90
3727;DHT22;1879;45.876;12.300;2024-03-08T05:59:04;9.10;99.90
3727;DHT22;1879;45.876;12.300;2024-03-08T06:01:31;9.00;99.90
3727;DHT22;1879;45.876;12.300;2024-03-08T06:04:03;9.00;99.90
3727;DHT22;1879;45.876;12.300;2024-03-08T06:06:30;9.00;99.90
3727;DHT22;1879;45.876;12.300;2024-03-08T06:08:57;9.00;99.90
3727;DHT22;1879;45.876;12.300;2024-03-08T06:11:25;9.00;99.90
3727;DHT22;1879;45.876;12.300;2024-03-08T06:13:54;9.00;99.90
3727;DHT22;1879;45.876;12.300;2024-03-08T06:16:25;9.00;99.90
3727;DHT22;1879;45.876;12.300;2024-03-08T06:18:55;9.00;99.90
3727;DHT22;1879;45.876;12.300;2024-03-08T06:21:24;9.00;99.90
3727;DHT22;1879;45.876;12.300;2024-03-08T06:23:52;9.00;99.90
3727;DHT22;1879;45.876;12.300;2024-03-08T06:26:20;9.00;99.90
3727;DHT22;1879;45.876;12.300;2024-03-08T06:28:47;9.00;99.90
3727;DHT22;1879;45.876;12.300;2024-03-08T06:31:14;9.00;99.90
3727;DHT22;1879;45.876;12.300;2024-03-08T06:33:41;9.00;99.90
3727;DHT22;1879;45.876;12.300;2024-03-08T06:36:09;9.00;99.90
3727;DHT22;1879;45.876;12.300;2024-03-08T06:38:39;9.00;99.90
3727;DHT22;1879;45.876;12.300;2024-03-08T06:41:08;9.00;99.90
3727;DHT22;1879;45.876;12.300;2024-03-08T06:43:41;9.00;99.90
3727;DHT22;1879;45.876;12.300;2024-03-08T06:46:08;9.00;99.90
3727;DHT22;1879;45.876;12.300;2024-03-08T06:48:35;9.10;99.90
3727;DHT22;1879;45.876;12.300;2024-03-08T06:51:04;9.10;99.90
3727;DHT22;1879;45.876;12.300;2024-03-08T06:53:31;9.10;99.90
3727;DHT22;1879;45.876;12.300;2024-03-08T06:56:02;9.10;99.90
3727;DHT22;1879;45.876;12.300;2024-03-08T06:58:29;9.10;99.90
3727;DHT22;1879;45.876;12.300;2024-03-08T07:00:56;9.20;99.90
3727;DHT22;1879;45.876;12.300;2024-03-08T07:03:26;9.20;99.90
3727;DHT22;1879;45.876;12.300;2024-03-08T07:05:55;9.30;99.90
3727;DHT22;1879;45.876;12.300;2024-03-08T07:08:22;9.30;99.90
3727;DHT22;1879;45.876;12.300;2024-03-08T07:10:49;9.30;99.90
3727;DHT22;1879;45.876;12.300;2024-03-08T07:13:17;9.40;99.90
3727;DHT22;1879;45.876;12.300;2024-03-08T07:15:44;9.40;99.90
3727;DHT22;1879;45.876;12.300;2024-03-08T07:18:12;9.40;99.90
3727;DHT22;1879;45.876;12.300;2024-03-08T07:20:40;9.40;99.90
3727;DHT22;1879;45.876;12.300;2024-03-08T07:23:09;9.40;99.90
3727;DHT22;1879;45.876;12.300;2024-03-08T07:25:36;9.40;99.90
3727;DHT22;1879;45.876;12.300;2024-03-08T07:28:04;9.40;99.90
3727;DHT22;1879;45.876;12.300;2024-03-08T07:30:34;9.40;99.90
3727;DHT22;1879;45.876;12.300;2024-03-08T07:33:26;9.50;99.90
3727;DHT22;1879;45.876;12.300;2024-03-08T07:35:54;9.50;99.90
3727;DHT22;1879;45.876;12.300;2024-03-08T07:38:22;9.50;99.90
3727;DHT22;1879;45.876;12.300;2024-03-08T07:40:49;9.60;99.90
3727;DHT22;1879;45.876;12.300;2024-03-08T07:43:16;9.60;99.90
3727;DHT22;1879;45.876;12.300;2024-03-08T07:45:44;9.60;99.90
3727;DHT22;1879;45.876;12.300;2024-03-08T07:48:11;9.60;99.90
3727;DHT22;1879;45.876;12.300;2024-03-08T07:50:39;9.70;99.90
3727;DHT22;1879;45.876;12.300;2024-03-08T07:53:06;9.60;99.90
3727;DHT22;1879;45.876;12.300;2024-03-08T07:55:33;9.70;99.90
3727;DHT22;1879;45.876;12.300;2024-03-08T07:58:00;9.70;99.90
3727;DHT22;1879;45.876;12.300;2024-03-08T08:00:28;9.70;99.90
3727;DHT22;1879;45.876;12.300;2024-03-08T08:02:58;9.70;99.90
3727;DHT22;1879;45.876;12.300;2024-03-08T08:05:25;10.30;99.90
3727;DHT22;1879;45.876;12.300;2024-03-08T08:07:53;11.00;99.90
3727;DHT22;1879;45.876;12.300;2024-03-08T08:10:20;11.30;99.90
3727;DHT22;1879;45.876;12.300;2024-03-08T08:12:48;11.10;99.90
3727;DHT22;1879;45.876;12.300;2024-03-08T08:15:15;10.70;99.90
3727;DHT22;1879;45.876;12.300;2024-03-08T08:17:43;10.50;99.90
3727;DHT22;1879;45.876;12.300;2024-03-08T08:20:12;10.30;99.90
3727;DHT22;1879;45.876;12.300;2024-03-08T08:22:39;10.10;99.90
3727;DHT22;1879;45.876;12.300;2024-03-08T08:25:07;10.00;99.90
3727;DHT22;1879;45.876;12.300;2024-03-08T08:27:34;9.80;99.90
3727;DHT22;1879;45.876;12.300;2024-03-08T08:30:02;9.80;99.90
3727;DHT22;1879;45.876;12.300;2024-03-08T08:32:33;9.80;99.90
3727;DHT22;1879;45.876;12.300;2024-03-08T08:35:00;9.70;99.90
3727;DHT22;1879;45.876;12.300;2024-03-08T08:37:29;9.70;99.90
3727;DHT22;1879;45.876;12.300;2024-03-08T08:39:56;9.70;99.90
3727;DHT22;1879;45.876;12.300;2024-03-08T08:42:23;9.60;99.90
3727;DHT22;1879;45.876;12.300;2024-03-08T08:44:51;9.60;99.90
3727;DHT22;1879;45.876;12.300;2024-03-08T08:47:18;9.70;99.90
3727;DHT22;1879;45.876;12.300;2024-03-08T08:49:45;9.70;99.90
3727;DHT22;1879;45.876;12.300;2024-03-08T08:52:13;9.60;99.90
3727;DHT22;1879;45.876;12.300;2024-03-08T08:54:42;9.60;99.90
3727;DHT22;1879;45.876;12.300;2024-03-08T08:57:10;9.60;99.90
3727;DHT22;1879;45.876;12.300;2024-03-08T08:59:37;9.60;99.90
3727;DHT22;1879;45.876;12.300;2024-03-08T09:02:05;9.60;99.90
3727;DHT22;1879;45.876;12.300;2024-03-08T09:04:32;9.70;99.90
3727;DHT22;1879;45.876;12.300;2024-03-08T09:06:59;9.70;99.90
3727;DHT22;1879;45.876;12.300;2024-03-08T09:09:27;9.70;99.90
3727;DHT22;1879;45.876;12.300;2024-03-08T09:11:56;9.70;99.90
3727;DHT22;1879;45.876;12.300;2024-03-08T09:14:23;9.80;99.90
3727;DHT22;1879;45.876;12.300;2024-03-08T09:16:51;9.80;99.90
3727;DHT22;1879;45.876;12.300;2024-03-08T09:19:18;9.80;99.90
3727;DHT22;1879;45.876;12.300;2024-03-08T09:21:46;9.80;99.90
3727;DHT22;1879;45.876;12.300;2024-03-08T09:24:13;9.90;99.90
3727;DHT22;1879;45.876;12.300;2024-03-08T09:26:41;9.90;99.90
3727;DHT22;1879;45.876;12.300;2024-03-08T09:29:10;9.90;99.90
3727;DHT22;1879;45.876;12.300;2024-03-08T09:31:37;9.90;99.90
3727;DHT22;1879;45.876;12.300;2024-03-08T09:34:05;9.90;99.90
3727;DHT22;1879;45.876;12.300;2024-03-08T09:36:34;9.90;99.90
3727;DHT22;1879;45.876;12.300;2024-03-08T09:39:01;9.90;99.90
3727;DHT22;1879;45.876;12.300;2024-03-08T09:41:28;10.00;99.90
3727;DHT22;1879;45.876;12.300;2024-03-08T09:43:56;10.00;99.90
3727;DHT22;1879;45.876;12.300;2024-03-08T09:46:26;10.00;99.90
3727;DHT22;1879;45.876;12.300;2024-03-08T09:48:54;10.00;99.90
3727;DHT22;1879;45.876;12.300;2024-03-08T09:51:22;10.00;99.90
3727;DHT22;1879;45.876;12.300;2024-03-08T09:53:51;9.90;99.90
3727;DHT22;1879;45.876;12.300;2024-03-08T09:56:19;9.80;99.90
3727;DHT22;1879;45.876;12.300;2024-03-08T09:58:46;9.90;99.90
3727;DHT22;1879;45.876;12.300;2024-03-08T10:01:35;9.90;99.90
3727;DHT22;1879;45.876;12.300;2024-03-08T10:04:02;10.00;99.90
3727;DHT22;1879;45.876;12.300;2024-03-08T10:06:29;10.00;99.90
3727;DHT22;1879;45.876;12.300;2024-03-08T10:08:56;10.00;99.90
3727;DHT22;1879;45.876;12.300;2024-03-08T10:11:24;10.00;99.90
3727;DHT22;1879;45.876;12.300;2024-03-08T10:13:52;10.00;99.90
3727;DHT22;1879;45.876;12.300;2024-03-08T10:16:19;9.90;99.90
3727;DHT22;1879;45.876;12.300;2024-03-08T10:18:48;9.90;99.90
3727;DHT22;1879;45.876;12.300;2024-03-08T10:21:15;9.90;99.90
3727;DHT22;1879;45.876;12.300;2024-03-08T10:23:42;9.90;99.90
3727;DHT22;1879;45.876;12.300;2024-03-08T10:26:14;9.80;99.90
3727;DHT22;1879;45.876;12.300;2024-03-08T10:28:41;9.80;99.90
3727;DHT22;1879;45.876;12.300;2024-03-08T10:31:09;9.80;99.90
3727;DHT22;1879;45.876;12.300;2024-03-08T10:33:36;9.70;99.90
3727;DHT22;1879;45.876;12.300;2024-03-08T10:36:08;9.60;99.90
3727;DHT22;1879;45.876;12.300;2024-03-08T10:38:36;9.60;99.90
3727;DHT22;1879;45.876;12.300;2024-03-08T10:41:05;9.60;99.90
3727;DHT22;1879;45.876;12.300;2024-03-08T10:43:41;9.60;99.90
3727;DHT22;1879;45.876;12.300;2024-03-08T10:46:18;9.80;99.90
3727;DHT22;1879;45.876;12.300;2024-03-08T10:48:49;10.00;99.90
3727;DHT22;1879;45.876;12.300;2024-03-08T10:51:19;10.10;99.90
3727;DHT22;1879;45.876;12.300;2024-03-08T10:53:48;10.30;99.90
3727;DHT22;1879;45.876;12.300;2024-03-08T10:56:16;10.40;99.90
3727;DHT22;1879;45.876;12.300;2024-03-08T10:58:44;10.40;99.90
3727;DHT22;1879;45.876;12.300;2024-03-08T11:01:12;10.50;99.90
3727;DHT22;1879;45.876;12.300;2024-03-08T11:03:47;10.50;99.90
3727;DHT22;1879;45.876;12.300;2024-03-08T11:06:30;10.60;99.90
3727;DHT22;1879;45.876;12.300;2024-03-08T11:08:57;10.70;99.90
3727;DHT22;1879;45.876;12.300;2024-03-08T11:11:26;10.80;99.90
3727;DHT22;1879;45.876;12.300;2024-03-08T11:13:56;10.90;99.90
3727;DHT22;1879;45.876;12.300;2024-03-08T11:16:39;11.10;99.90
3727;DHT22;1879;45.876;12.300;2024-03-08T11:19:25;11.30;99.90
3727;DHT22;1879;45.876;12.300;2024-03-08T11:22:00;11.50;99.90
3727;DHT22;1879;45.876;12.300;2024-03-08T11:24:27;11.70;99.90
3727;DHT22;1879;45.876;12.300;2024-03-08T11:26:57;11.90;99.90
3727;DHT22;1879;45.876;12.300;2024-03-08T11:29:33;11.90;99.90
3727;DHT22;1879;45.876;12.300;2024-03-08T11:32:07;11.80;99.90
3727;DHT22;1879;45.876;12.300;2024-03-08T11:34:34;11.50;99.90
3727;DHT22;1879;45.876;12.300;2024-03-08T11:37:04;11.30;99.90
3727;DHT22;1879;45.876;12.300;2024-03-08T11:39:31;11.20;99.90
3727;DHT22;1879;45.876;12.300;2024-03-08T11:41:58;11.10;99.90
3727;DHT22;1879;45.876;12.300;2024-03-08T11:44:27;10.90;99.90
3727;DHT22;1879;45.876;12.300;2024-03-08T11:46:54;10.80;99.90
3727;DHT22;1879;45.876;12.300;2024-03-08T11:49:21;10.70;99.90
3727;DHT22;1879;45.876;12.300;2024-03-08T11:51:51;10.70;99.90
3727;DHT22;1879;45.876;12.300;2024-03-08T11:54:21;10.70;99.90
3727;DHT22;1879;45.876;12.300;2024-03-08T11:56:51;10.80;99.90
3727;DHT22;1879;45.876;12.300;2024-03-08T11:59:19;10.80;99.90
3727;DHT22;1879;45.876;12.300;2024-03-08T12:01:58;10.80;99.90
3727;DHT22;1879;45.876;12.300;2024-03-08T12:04:27;10.80;99.90
3727;DHT22;1879;45.876;12.300;2024-03-08T12:06:54;10.70;99.90
3727;DHT22;1879;45.876;12.300;2024-03-08T12:09:21;10.70;99.90
3727;DHT22;1879;45.876;12.300;2024-03-08T12:11:48;10.70;99.90
3727;DHT22;1879;45.876;12.300;2024-03-08T12:14:16;10.70;99.90
3727;DHT22;1879;45.876;12.300;2024-03-08T12:16:44;10.70;99.90
3727;DHT22;1879;45.876;12.300;2024-03-08T12:19:11;10.70;99.90
3727;DHT22;1879;45.876;12.300;2024-03-08T12:21:38;10.80;99.90
3727;DHT22;1879;45.876;12.300;2024-03-08T12:24:15;10.70;99.90
3727;DHT22;1879;45.876;12.300;2024-03-08T12:26:43;10.80;99.90
3727;DHT22;1879;45.876;12.300;2024-03-08T12:29:18;10.80;99.90
3727;DHT22;1879;45.876;12.300;2024-03-08T12:31:48;10.80;99.90
3727;DHT22;1879;45.876;12.300;2024-03-08T12:34:17;10.70;99.90
3727;DHT22;1879;45.876;12.300;2024-03-08T12:36:45;10.70;99.90
3727;DHT22;1879;45.876;12.300;2024-03-08T12:39:15;10.70;99.90
3727;DHT22;1879;45.876;12.300;2024-03-08T12:41:44;10.50;99.90
3727;DHT22;1879;45.876;12.300;2024-03-08T12:44:12;10.50;99.90
3727;DHT22;1879;45.876;12.300;2024-03-08T12:46:39;10.40;99.90
3727;DHT22;1879;45.876;12.300;2024-03-08T12:49:08;10.50;99.90
3727;DHT22;1879;45.876;12.300;2024-03-08T12:51:35;10.40;99.90
3727;DHT22;1879;45.876;12.300;2024-03-08T12:54:04;10.50;99.90
3727;DHT22;1879;45.876;12.300;2024-03-08T12:56:34;10.60;99.90
3727;DHT22;1879;45.876;12.300;2024-03-08T12:59:05;10.60;99.90
3727;DHT22;1879;45.876;12.300;2024-03-08T13:01:32;10.60;99.90
3727;DHT22;1879;45.876;12.300;2024-03-08T13:04:00;10.50;99.90
3727;DHT22;1879;45.876;12.300;2024-03-08T13:06:28;10.50;99.90
3727;DHT22;1879;45.876;12.300;2024-03-08T13:08:56;10.50;99.90
3727;DHT22;1879;45.876;12.300;2024-03-08T13:11:24;10.50;99.90
3727;DHT22;1879;45.876;12.300;2024-03-08T13:13:51;10.60;99.90
3727;DHT22;1879;45.876;12.300;2024-03-08T13:16:20;10.60;99.90
3727;DHT22;1879;45.876;12.300;2024-03-08T13:18:47;10.60;99.90
3727;DHT22;1879;45.876;12.300;2024-03-08T13:21:15;10.60;99.90
3727;DHT22;1879;45.876;12.300;2024-03-08T13:23:45;10.60;99.90
3727;DHT22;1879;45.876;12.300;2024-03-08T13:26:15;10.50;99.90
3727;DHT22;1879;45.876;12.300;2024-03-08T13:28:43;10.50;99.90
3727;DHT22;1879;45.876;12.300;2024-03-08T13:31:10;10.40;99.90
3727;DHT22;1879;45.876;12.300;2024-03-08T13:33:39;10.30;99.90
3727;DHT22;1879;45.876;12.300;2024-03-08T13:36:08;10.30;99.90
3727;DHT22;1879;45.876;12.300;2024-03-08T13:38:41;10.20;99.90
3727;DHT22;1879;45.876;12.300;2024-03-08T13:41:09;10.20;99.90
3727;DHT22;1879;45.876;12.300;2024-03-08T13:43:37;10.10;99.90
3727;DHT22;1879;45.876;12.300;2024-03-08T13:46:05;10.10;99.90
3727;DHT22;1879;45.876;12.300;2024-03-08T13:48:32;10.00;99.90
3727;DHT22;1879;45.876;12.300;2024-03-08T13:51:01;10.00;99.90
3727;DHT22;1879;45.876;12.300;2024-03-08T13:53:28;10.00;99.90
3727;DHT22;1879;45.876;12.300;2024-03-08T13:55:55;9.90;99.90
3727;DHT22;1879;45.876;12.300;2024-03-08T13:58:22;9.90;99.90
3727;DHT22;1879;45.876;12.300;2024-03-08T14:00:49;9.90;99.90
3727;DHT22;1879;45.876;12.300;2024-03-08T14:03:17;9.80;99.90
3727;DHT22;1879;45.876;12.300;2024-03-08T14:05:44;9.80;99.90
3727;DHT22;1879;45.876;12.300;2024-03-08T14:08:13;9.80;99.90
3727;DHT22;1879;45.876;12.300;2024-03-08T14:10:41;9.80;99.90
3727;DHT22;1879;45.876;12.300;2024-03-08T14:13:09;9.80;99.90
3727;DHT22;1879;45.876;12.300;2024-03-08T14:15:37;9.80;99.90
3727;DHT22;1879;45.876;12.300;2024-03-08T14:18:08;9.70;99.90
3727;DHT22;1879;45.876;12.300;2024-03-08T14:20:35;9.70;99.90
3727;DHT22;1879;45.876;12.300;2024-03-08T14:23:01;9.70;99.90
3727;DHT22;1879;45.876;12.300;2024-03-08T14:25:33;9.70;99.90
3727;DHT22;1879;45.876;12.300;2024-03-08T14:28:00;9.80;99.90
3727;DHT22;1879;45.876;12.300;2024-03-08T14:30:32;9.80;99.90
3727;DHT22;1879;45.876;12.300;2024-03-08T14:33:00;9.80;99.90
3727;DHT22;1879;45.876;12.300;2024-03-08T14:35:27;9.80;99.90
3727;DHT22;1879;45.876;12.300;2024-03-08T14:37:55;9.80;99.90
3727;DHT22;1879;45.876;12.300;2024-03-08T14:40:22;9.80;99.90
3727;DHT22;1879;45.876;12.300;2024-03-08T14:42:51;9.80;99.90
3727;DHT22;1879;45.876;12.300;2024-03-08T14:45:18;9.80;99.90
3727;DHT22;1879;45.876;12.300;2024-03-08T14:47:46;9.80;99.90
3727;DHT22;1879;45.876;12.300;2024-03-08T14:50:16;9.80;99.90
3727;DHT22;1879;45.876;12.300;2024-03-08T14:52:43;9.70;99.90
3727;DHT22;1879;45.876;12.300;2024-03-08T14:55:10;9.70;99.90
3727;DHT22;1879;45.876;12.300;2024-03-08T14:57:40;9.70;99.90
3727;DHT22;1879;45.876;12.300;2024-03-08T15:00:09;9.80;99.90
3727;DHT22;1879;45.876;12.300;2024-03-08T15:02:42;9.80;99.90
3727;DHT22;1879;45.876;12.300;2024-03-08T15:05:09;9.80;99.90
3727;DHT22;1879;45.876;12.300;2024-03-08T15:07:37;9.80;99.90
3727;DHT22;1879;45.876;12.300;2024-03-08T15:10:07;9.90;99.90
3727;DHT22;1879;45.876;12.300;2024-03-08T15:12:37;9.90;99.90
3727;DHT22;1879;45.876;12.300;2024-03-08T15:15:08;9.80;99.90
3727;DHT22;1879;45.876;12.300;2024-03-08T15:17:36;9.80;99.90
3727;DHT22;1879;45.876;12.300;2024-03-08T15:20:06;9.80;99.90
3727;DHT22;1879;45.876;12.300;2024-03-08T15:22:41;9.80;99.90
3727;DHT22;1879;45.876;12.300;2024-03-08T15:25:09;9.80;99.90
3727;DHT22;1879;45.876;12.300;2024-03-08T15:27:40;9.80;99.90
3727;DHT22;1879;45.876;12.300;2024-03-08T15:30:09;9.80;99.90
3727;DHT22;1879;45.876;12.300;2024-03-08T15:32:39;9.70;99.90
3727;DHT22;1879;45.876;12.300;2024-03-08T15:35:07;9.70;99.90
3727;DHT22;1879;45.876;12.300;2024-03-08T15:37:39;9.70;99.90
3727;DHT22;1879;45.876;12.300;2024-03-08T15:40:09;9.70;99.90
3727;DHT22;1879;45.876;12.300;2024-03-08T15:42:44;9.70;99.90
3727;DHT22;1879;45.876;12.300;2024-03-08T15:45:12;9.60;99.90
3727;DHT22;1879;45.876;12.300;2024-03-08T15:47:39;9.60;99.90
3727;DHT22;1879;45.876;12.300;2024-03-08T15:50:08;9.60;99.90
3727;DHT22;1879;45.876;12.300;2024-03-08T15:52:37;9.70;99.90
3727;DHT22;1879;45.876;12.300;2024-03-08T15:55:07;9.70;99.90
3727;DHT22;1879;45.876;12.300;2024-03-08T15:57:34;9.70;99.90
3727;DHT22;1879;45.876;12.300;2024-03-08T16:00:02;9.70;99.90
3727;DHT22;1879;45.876;12.300;2024-03-08T16:02:41;9.60;99.90
3727;DHT22;1879;45.876;12.300;2024-03-08T16:05:08;9.60;99.90